TRA643M EHRD-LEAM
Flight info
| Callsign | TRA643M |
|---|---|
| Flight time | N/A |
| Altitude | 37000 |
| Route | WOODY N872 CIV DCT KOVIN DCT DUCRA DCT RESMI DCT DEKOD DCT DISAK DCT ARKIP DCT ARNAV DCT LMG DCT UVELI DCT OSMOB DCT VAVIX DCT NETUK N857 BAN N10 CJN L27 BLN N865 ESILA |
| Aircraft | B738/M-SDE2E3FGHIJ1RWXYZ/LB1 |
Departure
| Time | N/A |
|---|---|
| Airport | Rotterdam The Hague Airport (EHRD) |
Arrival
| Time | 2026-04-21 20:36 |
|---|---|
| Airport | Almería Airport (LEAM) |
| Time | Latitude | Longitude | Altitude | Speed | Heading |
|---|---|---|---|---|---|
| 2026-04-21 19:02 | 44.75841 | -0.21314 | 36845 ft | 414 kts | 222° |
| 2026-04-21 19:02 | 44.71370 | -0.26423 | 36838 ft | 414 kts | 222° |
| 2026-04-21 19:03 | 44.66927 | -0.31490 | 36839 ft | 414 kts | 222° |
| 2026-04-21 19:03 | 44.62341 | -0.36413 | 36830 ft | 416 kts | 218° |
| 2026-04-21 19:04 | 44.57549 | -0.40987 | 36835 ft | 416 kts | 217° |
| 2026-04-21 19:04 | 44.52748 | -0.45535 | 36825 ft | 417 kts | 218° |
| 2026-04-21 19:05 | 44.47943 | -0.50034 | 36818 ft | 419 kts | 213° |
| 2026-04-21 19:05 | 44.42755 | -0.53789 | 36819 ft | 421 kts | 210° |
| 2026-04-21 19:06 | 44.37507 | -0.57394 | 36812 ft | 420 kts | 210° |
| 2026-04-21 19:06 | 44.32273 | -0.61033 | 36818 ft | 420 kts | 211° |
| 2026-04-21 19:07 | 44.27058 | -0.64700 | 36810 ft | 419 kts | 211° |
| 2026-04-21 19:07 | 44.21910 | -0.68333 | 36800 ft | 419 kts | 211° |
| 2026-04-21 19:08 | 44.16708 | -0.71999 | 36809 ft | 418 kts | 211° |
| 2026-04-21 19:08 | 44.11515 | -0.75651 | 36806 ft | 418 kts | 211° |
| 2026-04-21 19:09 | 44.06364 | -0.79265 | 36807 ft | 417 kts | 210° |
| 2026-04-21 19:09 | 44.01191 | -0.82888 | 36789 ft | 416 kts | 210° |
| 2026-04-21 19:10 | 43.96027 | -0.86497 | 36795 ft | 415 kts | 210° |
| 2026-04-21 19:10 | 43.90873 | -0.90092 | 36799 ft | 415 kts | 210° |
| 2026-04-21 19:11 | 43.85724 | -0.93677 | 36792 ft | 414 kts | 210° |
| 2026-04-21 19:11 | 43.80581 | -0.97251 | 36764 ft | 413 kts | 210° |
| 2026-04-21 19:12 | 43.75478 | -1.00790 | 36778 ft | 413 kts | 210° |
| 2026-04-21 19:12 | 43.70352 | -1.04338 | 36781 ft | 413 kts | 210° |
| 2026-04-21 19:13 | 43.65207 | -1.07893 | 36772 ft | 414 kts | 210° |
| 2026-04-21 19:13 | 43.60102 | -1.11413 | 36761 ft | 415 kts | 209° |
| 2026-04-21 19:14 | 43.55003 | -1.14923 | 36776 ft | 416 kts | 209° |
| 2026-04-21 19:14 | 43.49828 | -1.18477 | 36778 ft | 417 kts | 209° |
| 2026-04-21 19:15 | 43.44633 | -1.22039 | 36783 ft | 418 kts | 208° |
| 2026-04-21 19:15 | 43.39425 | -1.25602 | 36772 ft | 419 kts | 209° |
| 2026-04-21 19:16 | 43.34208 | -1.29165 | 36787 ft | 419 kts | 209° |
| 2026-04-21 19:16 | 43.28981 | -1.32728 | 36784 ft | 419 kts | 209° |
| 2026-04-21 19:17 | 43.21146 | -1.38055 | 36791 ft | 418 kts | 209° |
| 2026-04-21 19:17 | 43.15956 | -1.41576 | 36809 ft | 418 kts | 208° |
| 2026-04-21 19:18 | 43.10753 | -1.45099 | 36803 ft | 418 kts | 208° |
| 2026-04-21 19:18 | 43.05567 | -1.48603 | 36808 ft | 417 kts | 208° |
| 2026-04-21 19:19 | 43.00402 | -1.52087 | 36817 ft | 416 kts | 208° |
| 2026-04-21 19:19 | 42.95246 | -1.55559 | 36818 ft | 416 kts | 208° |
| 2026-04-21 19:20 | 42.90057 | -1.59046 | 36826 ft | 417 kts | 208° |
| 2026-04-21 19:20 | 42.84857 | -1.62535 | 36805 ft | 418 kts | 208° |
| 2026-04-21 19:21 | 42.79627 | -1.66037 | 36807 ft | 419 kts | 208° |
| 2026-04-21 19:21 | 42.74426 | -1.69513 | 36803 ft | 421 kts | 208° |
| 2026-04-21 19:22 | 42.69171 | -1.73034 | 36810 ft | 421 kts | 208° |
| 2026-04-21 19:22 | 42.63911 | -1.76572 | 36805 ft | 422 kts | 208° |
| 2026-04-21 19:23 | 42.58642 | -1.80109 | 36801 ft | 423 kts | 208° |
| 2026-04-21 19:23 | 42.53368 | -1.83641 | 36804 ft | 422 kts | 208° |
| 2026-04-21 19:24 | 42.48117 | -1.87152 | 36807 ft | 421 kts | 208° |
| 2026-04-21 19:24 | 42.42897 | -1.90633 | 36812 ft | 421 kts | 208° |
| 2026-04-21 19:25 | 42.37620 | -1.94153 | 36823 ft | 420 kts | 208° |
| 2026-04-21 19:25 | 42.32432 | -1.97610 | 36825 ft | 419 kts | 208° |
| 2026-04-21 19:26 | 42.27212 | -2.01089 | 36823 ft | 418 kts | 208° |
| 2026-04-21 19:26 | 42.22022 | -2.04536 | 36833 ft | 417 kts | 208° |
| 2026-04-21 19:27 | 42.16820 | -2.07983 | 36832 ft | 416 kts | 208° |
| 2026-04-21 19:27 | 42.11643 | -2.11403 | 36840 ft | 415 kts | 208° |
| 2026-04-21 19:28 | 42.06469 | -2.14816 | 36859 ft | 414 kts | 208° |
| 2026-04-21 19:28 | 42.01312 | -2.18214 | 36862 ft | 414 kts | 208° |
| 2026-04-21 19:29 | 41.96153 | -2.21606 | 36866 ft | 414 kts | 208° |
| 2026-04-21 19:29 | 41.90998 | -2.24990 | 36892 ft | 413 kts | 208° |
| 2026-04-21 19:30 | 41.85830 | -2.28377 | 36892 ft | 413 kts | 208° |
| 2026-04-21 19:30 | 41.80667 | -2.31755 | 36910 ft | 413 kts | 208° |
| 2026-04-21 19:31 | 41.75501 | -2.35127 | 36901 ft | 412 kts | 208° |
| 2026-04-21 19:31 | 41.70347 | -2.38486 | 36904 ft | 411 kts | 208° |
| 2026-04-21 19:32 | 41.65243 | -2.41807 | 36903 ft | 410 kts | 208° |
| 2026-04-21 19:32 | 41.60117 | -2.45137 | 36902 ft | 409 kts | 208° |
| 2026-04-21 19:33 | 41.55004 | -2.48454 | 36909 ft | 408 kts | 208° |
| 2026-04-21 19:33 | 41.49895 | -2.51759 | 36908 ft | 408 kts | 208° |
| 2026-04-21 19:34 | 41.44792 | -2.55044 | 36902 ft | 407 kts | 208° |
| 2026-04-21 19:34 | 41.39693 | -2.58321 | 36903 ft | 407 kts | 208° |
| 2026-04-21 19:35 | 41.31756 | -2.62298 | 36899 ft | 412 kts | 192° |
| 2026-04-21 19:36 | 41.25994 | -2.62540 | 36910 ft | 418 kts | 180° |
| 2026-04-21 19:36 | 41.20189 | -2.61951 | 36904 ft | 418 kts | 180° |
| 2026-04-21 19:37 | 41.14386 | -2.61378 | 36900 ft | 418 kts | 180° |
| 2026-04-21 19:37 | 41.09561 | -2.60935 | 36890 ft | 418 kts | 180° |
| 2026-04-21 19:38 | 41.03763 | -2.60416 | 36914 ft | 417 kts | 180° |
| 2026-04-21 19:38 | 40.97970 | -2.59898 | 36910 ft | 418 kts | 180° |
| 2026-04-21 19:39 | 40.92170 | -2.59379 | 36905 ft | 418 kts | 180° |
| 2026-04-21 19:39 | 40.86366 | -2.58860 | 36890 ft | 418 kts | 180° |
| 2026-04-21 19:40 | 40.80563 | -2.58342 | 36907 ft | 418 kts | 181° |
| 2026-04-21 19:40 | 40.74754 | -2.57825 | 36910 ft | 418 kts | 180° |
| 2026-04-21 19:41 | 40.68942 | -2.57308 | 36907 ft | 419 kts | 181° |
| 2026-04-21 19:41 | 40.63134 | -2.56792 | 36912 ft | 419 kts | 180° |
| 2026-04-21 19:42 | 40.57317 | -2.56276 | 36910 ft | 419 kts | 180° |
| 2026-04-21 19:42 | 40.51506 | -2.55762 | 36906 ft | 419 kts | 180° |
| 2026-04-21 19:43 | 40.45759 | -2.55254 | 36908 ft | 417 kts | 180° |
| 2026-04-21 19:43 | 40.40004 | -2.54779 | 36905 ft | 415 kts | 184° |
| 2026-04-21 19:44 | 40.34383 | -2.55852 | 36907 ft | 407 kts | 202° |
| 2026-04-21 19:44 | 40.29138 | -2.58470 | 36908 ft | 407 kts | 205° |
| 2026-04-21 19:45 | 40.23867 | -2.61168 | 36905 ft | 409 kts | 204° |
| 2026-04-21 19:45 | 40.18563 | -2.63850 | 36909 ft | 410 kts | 205° |
| 2026-04-21 19:46 | 40.13234 | -2.66520 | 36902 ft | 410 kts | 204° |
| 2026-04-21 19:46 | 40.07942 | -2.69162 | 36905 ft | 405 kts | 204° |
| 2026-04-21 19:47 | 40.02726 | -2.71759 | 36896 ft | 398 kts | 204° |
| 2026-04-21 19:47 | 39.97558 | -2.74332 | 36912 ft | 397 kts | 204° |
| 2026-04-21 19:48 | 39.92410 | -2.76891 | 36904 ft | 396 kts | 204° |
| 2026-04-21 19:48 | 39.87268 | -2.79443 | 36904 ft | 395 kts | 204° |
| 2026-04-21 19:49 | 39.82124 | -2.81992 | 36910 ft | 396 kts | 204° |
| 2026-04-21 19:49 | 39.76979 | -2.84537 | 36898 ft | 396 kts | 204° |
| 2026-04-21 19:50 | 39.71850 | -2.87070 | 36914 ft | 397 kts | 204° |
| 2026-04-21 19:50 | 39.66671 | -2.89624 | 36905 ft | 399 kts | 204° |
| 2026-04-21 19:51 | 39.61470 | -2.92184 | 36896 ft | 400 kts | 204° |
| 2026-04-21 19:51 | 39.56258 | -2.94748 | 36902 ft | 401 kts | 204° |
| 2026-04-21 19:52 | 39.51029 | -2.97326 | 36890 ft | 402 kts | 204° |
| 2026-04-21 19:52 | 39.45790 | -2.99905 | 36900 ft | 403 kts | 204° |
| 2026-04-21 19:53 | 39.40540 | -3.02484 | 36903 ft | 404 kts | 204° |
| 2026-04-21 19:53 | 39.35281 | -3.05049 | 36905 ft | 404 kts | 204° |
| 2026-04-21 19:54 | 39.30016 | -3.07601 | 36879 ft | 404 kts | 204° |
| 2026-04-21 19:54 | 39.24754 | -3.10150 | 36897 ft | 404 kts | 204° |
| 2026-04-21 19:55 | 39.19493 | -3.12696 | 36899 ft | 404 kts | 204° |
| 2026-04-21 19:55 | 39.14233 | -3.15239 | 36901 ft | 403 kts | 204° |
| 2026-04-21 19:56 | 39.08975 | -3.17776 | 36900 ft | 403 kts | 204° |
| 2026-04-21 19:56 | 39.03724 | -3.20307 | 36906 ft | 403 kts | 204° |
| 2026-04-21 19:57 | 38.98504 | -3.22819 | 36898 ft | 403 kts | 204° |
| 2026-04-21 19:57 | 38.93267 | -3.25343 | 36900 ft | 403 kts | 204° |
| 2026-04-21 19:58 | 38.88021 | -3.27870 | 36900 ft | 403 kts | 204° |
| 2026-04-21 19:58 | 38.82738 | -3.30411 | 36897 ft | 402 kts | 204° |
| 2026-04-21 19:59 | 38.77499 | -3.32927 | 36901 ft | 402 kts | 204° |
| 2026-04-21 19:59 | 38.72297 | -3.35421 | 36900 ft | 401 kts | 204° |
| 2026-04-21 20:00 | 38.67067 | -3.37925 | 36897 ft | 401 kts | 204° |
| 2026-04-21 20:00 | 38.61841 | -3.40422 | 36898 ft | 401 kts | 204° |
| 2026-04-21 20:01 | 38.56626 | -3.42911 | 36891 ft | 400 kts | 204° |
| 2026-04-21 20:01 | 38.51413 | -3.45395 | 36900 ft | 400 kts | 203° |
| 2026-04-21 20:02 | 38.46208 | -3.47871 | 36898 ft | 399 kts | 203° |
| 2026-04-21 20:02 | 38.41011 | -3.50340 | 36890 ft | 399 kts | 203° |
| 2026-04-21 20:03 | 38.35816 | -3.52804 | 36885 ft | 398 kts | 203° |
| 2026-04-21 20:03 | 38.30654 | -3.55248 | 36884 ft | 398 kts | 203° |
| 2026-04-21 20:04 | 38.25469 | -3.57701 | 36878 ft | 397 kts | 203° |
| 2026-04-21 20:04 | 38.20289 | -3.60147 | 36878 ft | 397 kts | 203° |
| 2026-04-21 20:05 | 38.15003 | -3.62229 | 36878 ft | 401 kts | 193° |
| 2026-04-21 20:05 | 38.09432 | -3.62633 | 36862 ft | 394 kts | 185° |
| 2026-04-21 20:05 | 38.06735 | -3.62626 | 36860 ft | 380 kts | 185° |
| 2026-04-21 20:06 | 38.04149 | -3.62616 | 36855 ft | 365 kts | 185° |
| 2026-04-21 20:06 | 37.99158 | -3.62627 | 36883 ft | 358 kts | 185° |
| 2026-04-21 20:07 | 37.94097 | -3.62671 | 36898 ft | 369 kts | 185° |
| 2026-04-21 20:07 | 37.88893 | -3.62715 | 36852 ft | 376 kts | 185° |
| 2026-04-21 20:07 | 37.86290 | -3.62734 | 36545 ft | 372 kts | 185° |
| 2026-04-21 20:08 | 37.83696 | -3.62753 | 35867 ft | 376 kts | 185° |
| 2026-04-21 20:08 | 37.81036 | -3.62777 | 34975 ft | 387 kts | 184° |
| 2026-04-21 20:08 | 37.78335 | -3.62799 | 34423 ft | 388 kts | 184° |
| 2026-04-21 20:08 | 37.75652 | -3.62818 | 34087 ft | 383 kts | 184° |
| 2026-04-21 20:09 | 37.73006 | -3.62837 | 33780 ft | 378 kts | 184° |
| 2026-04-21 20:09 | 37.70388 | -3.62856 | 33385 ft | 374 kts | 184° |
| 2026-04-21 20:09 | 37.67790 | -3.62878 | 32909 ft | 373 kts | 184° |
| 2026-04-21 20:09 | 37.65197 | -3.62900 | 32437 ft | 371 kts | 184° |
| 2026-04-21 20:10 | 37.62657 | -3.62919 | 31984 ft | 370 kts | 184° |
| 2026-04-21 20:10 | 37.60090 | -3.62938 | 31568 ft | 367 kts | 184° |
| 2026-04-21 20:10 | 37.57538 | -3.62957 | 31140 ft | 366 kts | 184° |
| 2026-04-21 20:10 | 37.55005 | -3.62977 | 30758 ft | 363 kts | 184° |
| 2026-04-21 20:11 | 37.52486 | -3.62997 | 30379 ft | 361 kts | 184° |
| 2026-04-21 20:11 | 37.49975 | -3.63016 | 29973 ft | 360 kts | 184° |
| 2026-04-21 20:11 | 37.47479 | -3.63036 | 29517 ft | 358 kts | 184° |
| 2026-04-21 20:11 | 37.44999 | -3.63054 | 29089 ft | 355 kts | 184° |
| 2026-04-21 20:12 | 37.42528 | -3.62895 | 28589 ft | 359 kts | 172° |
| 2026-04-21 20:12 | 37.40183 | -3.61735 | 28081 ft | 369 kts | 154° |
| 2026-04-21 20:12 | 37.38786 | -3.60464 | 27763 ft | 371 kts | 144° |
| 2026-04-21 20:12 | 37.36675 | -3.57038 | 26957 ft | 383 kts | 124° |
| 2026-04-21 20:13 | 37.35470 | -3.54074 | 26364 ft | 383 kts | 122° |
| 2026-04-21 20:13 | 37.34307 | -3.51059 | 25804 ft | 383 kts | 121° |
| 2026-04-21 20:13 | 37.33154 | -3.48055 | 25334 ft | 380 kts | 121° |
| 2026-04-21 20:13 | 37.31999 | -3.45082 | 24878 ft | 377 kts | 121° |
| 2026-04-21 20:14 | 37.30838 | -3.42136 | 24404 ft | 375 kts | 121° |
| 2026-04-21 20:14 | 37.29677 | -3.39219 | 23987 ft | 372 kts | 121° |
| 2026-04-21 20:14 | 37.28522 | -3.36331 | 23550 ft | 369 kts | 121° |
| 2026-04-21 20:14 | 37.27371 | -3.33458 | 23043 ft | 367 kts | 121° |
| 2026-04-21 20:15 | 37.26227 | -3.30606 | 22541 ft | 365 kts | 121° |
| 2026-04-21 20:15 | 37.25090 | -3.27775 | 22043 ft | 362 kts | 121° |
| 2026-04-21 20:15 | 37.23964 | -3.24945 | 21642 ft | 361 kts | 121° |
| 2026-04-21 20:15 | 37.22854 | -3.22129 | 21290 ft | 359 kts | 121° |
| 2026-04-21 20:16 | 37.21753 | -3.19332 | 20955 ft | 357 kts | 121° |
| 2026-04-21 20:16 | 37.20659 | -3.16555 | 20633 ft | 354 kts | 121° |
| 2026-04-21 20:16 | 37.19568 | -3.13791 | 20248 ft | 353 kts | 121° |
| 2026-04-21 20:16 | 37.18478 | -3.11033 | 19892 ft | 352 kts | 121° |
| 2026-04-21 20:17 | 37.17395 | -3.08294 | 19559 ft | 350 kts | 121° |
| 2026-04-21 20:17 | 37.16311 | -3.05561 | 19197 ft | 349 kts | 121° |
| 2026-04-21 20:17 | 37.15232 | -3.02840 | 18830 ft | 347 kts | 121° |
| 2026-04-21 20:17 | 37.14160 | -3.00139 | 18567 ft | 345 kts | 121° |
| 2026-04-21 20:18 | 37.13453 | -2.98357 | 18372 ft | 344 kts | 121° |
| 2026-04-21 20:18 | 37.12027 | -2.94771 | 17928 ft | 343 kts | 121° |
| 2026-04-21 20:18 | 37.10963 | -2.92098 | 17504 ft | 344 kts | 121° |
| 2026-04-21 20:18 | 37.09896 | -2.89420 | 17090 ft | 343 kts | 121° |
| 2026-04-21 20:19 | 37.08834 | -2.86756 | 16728 ft | 340 kts | 121° |
| 2026-04-21 20:19 | 37.07783 | -2.84116 | 16359 ft | 338 kts | 121° |
| 2026-04-21 20:19 | 37.06732 | -2.81485 | 15997 ft | 337 kts | 121° |
| 2026-04-21 20:19 | 37.05692 | -2.78881 | 15710 ft | 333 kts | 121° |
| 2026-04-21 20:20 | 37.04645 | -2.76287 | 15242 ft | 335 kts | 121° |
| 2026-04-21 20:20 | 37.03567 | -2.73706 | 14850 ft | 335 kts | 122° |
| 2026-04-21 20:20 | 37.02476 | -2.71120 | 14477 ft | 336 kts | 122° |
| 2026-04-21 20:20 | 37.01390 | -2.68543 | 14153 ft | 334 kts | 122° |
| 2026-04-21 20:21 | 37.00309 | -2.65974 | 13794 ft | 334 kts | 121° |
| 2026-04-21 20:21 | 36.99231 | -2.63411 | 13444 ft | 332 kts | 121° |
| 2026-04-21 20:21 | 36.98163 | -2.60871 | 13098 ft | 329 kts | 120° |
| 2026-04-21 20:21 | 36.97448 | -2.58144 | 12643 ft | 336 kts | 94° |
| 2026-04-21 20:22 | 36.97846 | -2.55309 | 12348 ft | 333 kts | 64° |
| 2026-04-21 20:22 | 37.01251 | -2.52018 | 11821 ft | 311 kts | 9° |
| 2026-04-21 20:22 | 37.03315 | -2.51212 | 11491 ft | 314 kts | 25° |
| 2026-04-21 20:23 | 37.04998 | -2.49534 | 11222 ft | 316 kts | 47° |
| 2026-04-21 20:23 | 37.06266 | -2.47303 | 10944 ft | 314 kts | 58° |
| 2026-04-21 20:23 | 37.07333 | -2.44921 | 10647 ft | 313 kts | 60° |
| 2026-04-21 20:23 | 37.08361 | -2.42514 | 10335 ft | 313 kts | 62° |
| 2026-04-21 20:24 | 37.09290 | -2.40076 | 10152 ft | 307 kts | 66° |
| 2026-04-21 20:24 | 37.10075 | -2.37619 | 10002 ft | 301 kts | 70° |
| 2026-04-21 20:24 | 37.10705 | -2.35126 | 9703 ft | 300 kts | 75° |
| 2026-04-21 20:24 | 37.11173 | -2.32588 | 9424 ft | 299 kts | 80° |
| 2026-04-21 20:25 | 37.11482 | -2.30020 | 9134 ft | 297 kts | 84° |
| 2026-04-21 20:25 | 37.11639 | -2.27448 | 8852 ft | 295 kts | 88° |
| 2026-04-21 20:25 | 37.11662 | -2.25745 | 8666 ft | 294 kts | 91° |
| 2026-04-21 20:25 | 37.11576 | -2.23201 | 8383 ft | 292 kts | 95° |
| 2026-04-21 20:26 | 37.11324 | -2.20693 | 8100 ft | 289 kts | 105° |
| 2026-04-21 20:26 | 37.10452 | -2.18466 | 7814 ft | 284 kts | 132° |
| 2026-04-21 20:26 | 37.09073 | -2.16737 | 7573 ft | 279 kts | 139° |
| 2026-04-21 20:26 | 37.07638 | -2.15126 | 7381 ft | 274 kts | 140° |
| 2026-04-21 20:27 | 37.06225 | -2.13566 | 7186 ft | 270 kts | 140° |
| 2026-04-21 20:27 | 37.04790 | -2.11992 | 6740 ft | 277 kts | 140° |
| 2026-04-21 20:27 | 37.03333 | -2.10406 | 6423 ft | 278 kts | 141° |
| 2026-04-21 20:27 | 37.01874 | -2.08828 | 6131 ft | 277 kts | 141° |
| 2026-04-21 20:28 | 37.00426 | -2.07266 | 5945 ft | 271 kts | 141° |
| 2026-04-21 20:28 | 36.99027 | -2.05755 | 5814 ft | 261 kts | 141° |
| 2026-04-21 20:28 | 36.97666 | -2.04286 | 5514 ft | 256 kts | 141° |
| 2026-04-21 20:28 | 36.96258 | -2.02950 | 5144 ft | 253 kts | 158° |
| 2026-04-21 20:29 | 36.94622 | -2.02576 | 5044 ft | 230 kts | 190° |
| 2026-04-21 20:29 | 36.93196 | -2.03257 | 4746 ft | 216 kts | 219° |
| 2026-04-21 20:29 | 36.92126 | -2.04500 | 4379 ft | 207 kts | 239° |
| 2026-04-21 20:29 | 36.91522 | -2.06091 | 4059 ft | 199 kts | 250° |
| 2026-04-21 20:30 | 36.91094 | -2.07649 | 3968 ft | 181 kts | 260° |
| 2026-04-21 20:30 | 36.90873 | -2.09183 | 3771 ft | 179 kts | 263° |
| 2026-04-21 20:30 | 36.90658 | -2.10696 | 3618 ft | 176 kts | 261° |
| 2026-04-21 20:30 | 36.90400 | -2.12166 | 3507 ft | 176 kts | 258° |
| 2026-04-21 20:31 | 36.90065 | -2.13648 | 3377 ft | 179 kts | 254° |
| 2026-04-21 20:31 | 36.89690 | -2.15143 | 3193 ft | 182 kts | 256° |
| 2026-04-21 20:31 | 36.89357 | -2.16646 | 2999 ft | 175 kts | 257° |
| 2026-04-21 20:31 | 36.89032 | -2.18067 | 2804 ft | 168 kts | 254° |
| 2026-04-21 20:32 | 36.88670 | -2.19461 | 2580 ft | 170 kts | 254° |
| 2026-04-21 20:32 | 36.88332 | -2.20889 | 2337 ft | 169 kts | 256° |
| 2026-04-21 20:32 | 36.88007 | -2.22250 | 2197 ft | 160 kts | 254° |
| 2026-04-21 20:32 | 36.87667 | -2.23574 | 1947 ft | 161 kts | 253° |
| 2026-04-21 20:33 | 36.87323 | -2.24919 | 1706 ft | 165 kts | 253° |
| 2026-04-21 20:33 | 36.86984 | -2.26297 | 1527 ft | 166 kts | 253° |
| 2026-04-21 20:33 | 36.86672 | -2.27660 | 1363 ft | 163 kts | 254° |
| 2026-04-21 20:33 | 36.86349 | -2.28994 | 1173 ft | 158 kts | 253° |
| 2026-04-21 20:34 | 36.86033 | -2.30273 | 971 ft | 150 kts | 254° |
| 2026-04-21 20:34 | 36.85739 | -2.31505 | 809 ft | 145 kts | 254° |
| 2026-04-21 20:34 | 36.85443 | -2.32702 | 549 ft | 143 kts | 253° |
| 2026-04-21 20:34 | 36.85160 | -2.33881 | 368 ft | 142 kts | 253° |
| 2026-04-21 20:35 | 36.84869 | -2.35077 | 158 ft | 145 kts | 251° |
| 2026-04-21 20:35 | 36.84581 | -2.36246 | 54 ft | 126 kts | 253° |
| 2026-04-21 20:35 | 36.84391 | -2.37032 | 54 ft | 63 kts | 252° |
| 2026-04-21 20:35 | 36.84273 | -2.37496 | 61 ft | 52 kts | 252° |
| 2026-04-21 20:36 | 36.84199 | -2.37831 | 58 ft | 34 kts | 264° |
| 2026-04-21 20:36 | 36.84207 | -2.38049 | 62 ft | 21 kts | 278° |
| 2026-04-21 20:36 | 36.84233 | -2.38183 | 59 ft | 13 kts | 309° |
| 2026-04-21 20:36 | 36.84288 | -2.38156 | 62 ft | 11 kts | 70° |
| 2026-04-21 20:37 | 36.84315 | -2.38049 | 65 ft | 16 kts | 73° |
| 2026-04-21 20:37 | 36.84348 | -2.37909 | 64 ft | 17 kts | 73° |
| 2026-04-21 20:37 | 36.84383 | -2.37773 | 62 ft | 16 kts | 72° |
| 2026-04-21 20:37 | 36.84416 | -2.37643 | 59 ft | 14 kts | 72° |
| 2026-04-21 20:38 | 36.84436 | -2.37554 | 60 ft | 10 kts | 74° |
| 2026-04-21 20:38 | 36.84485 | -2.37500 | 65 ft | 11 kts | 359° |
| 2026-04-21 20:38 | 36.84542 | -2.37542 | 65 ft | 7 kts | 270° |
| 2026-04-21 20:38 | 36.84508 | -2.37583 | 63 ft | 7 kts | 215° |
| 2026-04-21 20:39 | 36.84480 | -2.37606 | 64 ft | 2 kts | 214° |
| 2026-04-21 20:39 | 36.84477 | -2.37609 | 62 ft | 0 kts | 214° |